Austin, TX (78789)

12:12 PM CDT on September 02, 2014 (GMT -0500)
Rosedale | Change Station
CLOSE
Current Station
Personal Weather Station
Location: Austin, TX
Elevation: 659 ft
Nearby Weather Stations

Elev 659 ft 30.31 °N, 97.75 °W | Updated 12 seconds ago

Partly Cloudy
Partly Cloudy
92.7 °F
Feels Like 101 °F
N
0.0
Wind Variable Wind from SSW
Gusts 0.9 mph

Today
High -- | Low -- °F
--% Chance of Precip.
Yesterday
High -- | Low -- °F
Precip. -- in
7:08 AM 7:52 PM
First Quarter, 53% visible
Pressure 29.93 in
Visibility 10.0 miles
Clouds Few 4000 ft
Heat Index 101 °F
Dew Point 72 °F
Humidity 52%
Rainfall 0.00 in
Snow Depth Not available.
UV 9 out of 12
Pollen 8.40 out of 12
Ozone Good
PM2.5 Good
Flu Activity Not available.
METAR KATT 021651Z AUTO 17007KT 150V220 10SM FEW040 34/22 A2998 RMK AO2 SLP135 T03390217

More Conditions Fewer Conditions

Pressure 29.93 in
Visibility 10.0 miles
Clouds Few 4000 ft
Heat Index 101 °F
Dew Point 72 °F
Humidity 52%
Rainfall 0.00 in
Snow Depth Not available.
UV 9 out of 12
Pollen 8.40 out of 12
Ozone Good
PM2.5 Good
Flu Activity Not available.
METAR KATT 021651Z AUTO 17007KT 150V220 10SM FEW040 34/22 A2998 RMK AO2 SLP135 T03390217

More Conditions Fewer Conditions

Nowcast | as of 10:56 am CDT on September 2, 2014

Through 1 PM...isolated showers will move toward the north. These showers will produce light to moderate rain. Spotty rainfall totals of one tenth of an inch are expected. Some of these showers could develop into thunderstorms and produce occasional lightning.

×

10-Day Weather Forecast

Almanac

Astronomy

Sep. 02, 2014 Rise Set
Actual Time 7:08 AM CDT 7:52 PM CDT
Civil Twilight 6:43 AM CDT 8:16 PM CDT
Nautical Twilight 6:15 AM CDT 8:45 PM CDT
Astronomical Twilight 5:45 AM CDT 9:14 PM CDT
Moon 2:24 PM CDT 12:24 AM CDT
Length of Visible Light 13h 32m
Length of Day
12h 44m
Tomorrow will be 1m 46s shorter.
First Quarter, 53% of the Moon is Illuminated
Today
First Quarter
Sep 8
Full
Sep 15
Last Quarter
Sep 24
New
Oct 1
First Quarter

Today's Extremes

State Highs State Lows

Community

WunderPhotos

Upload Photos

1,749,719 photos uploaded!

Nearby

Air Quality

  Air Quality AQ Index Pollutant
Yesterday Good
PM2.5
Yesterday Good
OZONE
Current Good
OZONE
Current Good
PM2.5
Tuesday Good
OZONE
Tuesday Good
PM10
Wednesday Good
OZONE
Wednesday Good
PM10
Thursday Good
OZONE
Thursday Good
PM10

Snow Depth

Station Depth Elevation
No new snow has been reported.

Earthquake Activity

City Distance Mag. Time & Date
No recent earthquake activity has been reported nearby.
Minimum magnitude displayed is 2.5.

Coastal Water Temperatures

Place Temperature
No Stations Reporting

Nearby Weather Stations